Time;durP1;ratioP1;P1;durP2;ratioP2;P2;SDS_P1;SDS_P2;PMS_P1;PMS_P2;Temp;Humidity;BMP_temperature;BMP_pressure;BME280_temperature;BME280_humidity;BME280_pressure;Samples;Min_cycle;Max_cycle;Signal;HPM_P1;HPM_P2
2023/09/19 00:00:28;;;;;;;;;4.00;3.00;;;;;16.92;73.03;99060.44;5093578;28;8807;-59
2023/09/19 00:02:57;;;;;;;;;3.00;2.20;;;;;16.94;73.33;99065.63;5077669;28;8838;-58
2023/09/19 00:05:25;;;;;;;;;3.00;1.80;;;;;16.96;72.71;99068.97;5094337;28;8826;-59
2023/09/19 00:07:54;;;;;;;;;3.80;3.00;;;;;16.97;72.45;99071.47;5097920;28;8814;-57
2023/09/19 00:10:24;;;;;;;;;3.80;3.20;;;;;16.99;72.54;99072.13;5097777;28;8806;-60
2023/09/19 00:12:53;;;;;;;;;6.20;5.00;;;;;16.99;72.72;99077.50;5098234;28;8968;-59
2023/09/19 00:15:21;;;;;;;;;1.80;1.80;;;;;16.98;72.64;99081.22;5097420;28;8818;-59
2023/09/19 00:17:48;;;;;;;;;3.40;3.40;;;;;16.97;72.90;99079.56;5097851;28;8814;-59
2023/09/19 00:20:17;;;;;;;;;4.00;4.00;;;;;16.96;73.06;99077.03;5098104;28;9596;-58
2023/09/19 00:22:45;;;;;;;;;3.40;3.40;;;;;16.93;72.70;99078.22;5097166;28;8864;-58
2023/09/19 00:25:15;;;;;;;;;3.00;3.00;;;;;16.88;73.31;99096.78;5097099;28;8822;-58
2023/09/19 00:27:44;;;;;;;;;4.80;4.00;;;;;16.82;72.95;99094.81;5098146;28;9588;-59
2023/09/19 00:30:15;;;;;;;;;3.40;3.40;;;;;16.76;73.09;99094.69;5096466;28;8810;-60
2023/09/19 00:32:43;;;;;;;;;4.00;3.00;;;;;16.69;73.26;99094.59;5096708;28;8827;-59
2023/09/19 00:35:11;;;;;;;;;3.00;3.00;;;;;16.61;73.50;99094.66;5096060;28;8806;-58
2023/09/19 00:37:39;;;;;;;;;2.60;2.20;;;;;16.54;73.62;99104.47;5097349;28;8822;-60
2023/09/19 00:40:10;;;;;;;;;0.00;0.00;;;;;16.49;73.84;99104.16;5097221;28;8814;-60
2023/09/19 00:42:38;;;;;;;;;1.40;1.40;;;;;16.44;73.18;99103.88;5097682;28;9524;-57
2023/09/19 00:45:06;;;;;;;;;1.80;1.80;;;;;16.40;73.49;99099.88;5097745;28;8822;-59
2023/09/19 00:47:33;;;;;;;;;1.00;1.00;;;;;16.36;73.54;99127.25;5097989;28;8883;-60
2023/09/19 00:50:03;;;;;;;;;1.00;1.00;;;;;16.32;74.04;99113.34;5097355;28;8808;-58
2023/09/19 00:52:31;;;;;;;;;1.00;1.00;;;;;16.27;74.03;99117.56;5097136;28;8843;-60
2023/09/19 00:55:00;;;;;;;;;1.00;1.00;;;;;16.25;74.10;99127.69;5096916;28;8814;-59
2023/09/19 00:57:29;;;;;;;;;1.00;1.00;;;;;16.23;73.73;99131.56;5096885;28;8948;-60
2023/09/19 00:59:58;;;;;;;;;3.00;1.00;;;;;16.23;74.15;99136.94;5097118;28;8830;-57
2023/09/19 01:02:27;;;;;;;;;2.60;2.60;;;;;16.23;74.27;99134.25;5096403;28;8846;-60
2023/09/19 01:04:54;;;;;;;;;1.00;1.00;;;;;16.22;73.33;99133.38;5096620;28;8849;-57
2023/09/19 01:07:24;;;;;;;;;0.60;0.60;;;;;16.21;73.81;99129.03;5096253;28;8830;-57
2023/09/19 01:09:54;;;;;;;;;3.00;1.80;;;;;16.22;73.69;99127.19;5097432;28;8814;-58
2023/09/19 01:12:22;;;;;;;;;1.80;1.80;;;;;16.20;73.61;99133.56;5096372;28;8837;-59
2023/09/19 01:14:52;;;;;;;;;1.00;1.00;;;;;16.20;73.75;99136.25;5096741;28;8823;-60
2023/09/19 01:17:22;;;;;;;;;3.00;1.80;;;;;16.19;73.35;99134.56;5095826;28;8826;-60
2023/09/19 01:19:49;;;;;;;;;2.50;2.50;;;;;16.19;73.51;99139.94;5095844;28;8818;-59
2023/09/19 01:22:17;;;;;;;;;1.00;1.00;;;;;16.18;73.58;99138.28;5096793;28;8821;-59
2023/09/19 01:24:45;;;;;;;;;2.20;1.00;;;;;16.17;73.64;99136.59;5097022;28;8818;-58
2023/09/19 01:27:14;;;;;;;;;3.40;1.00;;;;;16.16;73.85;99144.00;5096931;28;8860;-57
2023/09/19 01:29:44;;;;;;;;;1.80;1.00;;;;;16.12;73.83;99142.69;5077038;28;8840;-59
2023/09/19 01:32:10;;;;;;;;;0.00;0.00;;;;;16.08;73.58;99144.88;5088692;28;8814;-58
2023/09/19 01:34:38;;;;;;;;;0.40;0.40;;;;;16.05;74.07;99152.44;5096983;28;8822;-57
2023/09/19 01:37:07;;;;;;;;;3.00;2.60;;;;;16.00;73.81;99150.28;5096132;28;8842;-59
2023/09/19 01:39:35;;;;;;;;;1.80;1.00;;;;;15.96;73.84;99148.13;5096035;28;8864;-59
2023/09/19 01:42:04;;;;;;;;;0.00;0.00;;;;;15.93;73.66;99149.31;5096179;28;8877;-59
2023/09/19 01:44:32;;;;;;;;;2.60;2.20;;;;;15.92;74.18;99154.88;5095634;28;8845;-58
2023/09/19 01:47:00;;;;;;;;;3.00;1.50;;;;;15.91;74.08;99156.72;5096257;28;8849;-58
2023/09/19 01:49:27;;;;;;;;;1.00;1.00;;;;;15.89;73.82;99156.06;5096250;28;9491;-60
2023/09/19 01:51:55;;;;;;;;;1.40;1.40;;;;;15.89;73.60;99158.75;5096465;28;8814;-58
2023/09/19 01:54:22;;;;;;;;;1.00;1.00;;;;;15.89;73.95;99165.97;5095548;28;9764;-60
2023/09/19 01:56:50;;;;;;;;;1.40;1.40;;;;;15.88;73.81;99164.28;5096965;28;8945;-58
2023/09/19 01:59:18;;;;;;;;;1.00;1.00;;;;;15.87;73.71;99168.00;5096213;28;9494;-57
2023/09/19 02:01:46;;;;;;;;;1.00;1.00;;;;;15.87;73.67;99176.03;5095793;28;8887;-58
2023/09/19 02:04:13;;;;;;;;;3.00;3.00;;;;;15.84;74.21;99181.78;5095242;28;8846;-58
2023/09/19 02:06:42;;;;;;;;;0.00;0.00;;;;;15.82;73.44;99178.41;5095609;28;8826;-59
2023/09/19 02:09:09;;;;;;;;;0.60;0.60;;;;;15.79;73.85;99168.84;5095619;28;8833;-59
2023/09/19 02:11:38;;;;;;;;;3.00;3.00;;;;;15.75;73.81;99164.00;5096930;28;9543;-59
2023/09/19 02:14:08;;;;;;;;;3.00;0.60;;;;;15.71;73.97;99168.88;5095218;28;8849;-60
2023/09/19 02:16:36;;;;;;;;;1.00;1.00;;;;;15.69;74.08;99156.66;5081363;28;8838;-59
2023/09/19 02:19:05;;;;;;;;;1.00;1.00;;;;;15.68;74.12;99171.06;5095739;28;8972;-60
2023/09/19 02:21:33;;;;;;;;;1.00;1.00;;;;;15.66;73.79;99167.72;5095436;28;9554;-60
2023/09/19 02:24:01;;;;;;;;;1.40;1.00;;;;;15.66;73.80;99178.47;5095566;28;8825;-58
2023/09/19 02:26:28;;;;;;;;;1.00;1.00;;;;;15.66;73.64;99178.47;5095528;28;8852;-58
2023/09/19 02:28:56;;;;;;;;;0.75;0.75;;;;;15.66;74.40;99179.31;5095139;28;8821;-59
2023/09/19 02:31:23;;;;;;;;;3.50;3.00;;;;;15.67;73.87;99180.13;5095203;28;8810;-57
2023/09/19 02:33:51;;;;;;;;;0.25;0.25;;;;;15.67;73.20;99182.81;5095438;28;8817;-57
2023/09/19 02:36:19;;;;;;;;;0.50;0.00;;;;;15.64;73.66;99186.69;5094979;28;8829;-58
2023/09/19 02:38:47;;;;;;;;;1.00;0.50;;;;;15.64;73.98;99192.06;5095660;28;8856;-58
2023/09/19 02:41:14;;;;;;;;;1.00;1.00;;;;;15.64;73.50;99191.22;5095249;28;8814;-59
2023/09/19 02:43:42;;;;;;;;;2.50;2.50;;;;;15.63;73.82;99194.94;5095404;28;8825;-58
2023/09/19 02:46:11;;;;;;;;;0.00;0.00;;;;;15.62;73.89;99193.25;5094925;28;8846;-59
2023/09/19 02:48:39;;;;;;;;;0.20;0.00;;;;;15.59;74.17;99190.91;5094886;28;8798;-59
2023/09/19 02:51:07;;;;;;;;;3.00;0.75;;;;;15.57;73.41;99180.34;5094886;28;8881;-59
2023/09/19 02:53:35;;;;;;;;;0.40;0.40;;;;;15.56;73.84;99180.53;5095262;28;8817;-58
2023/09/19 02:56:04;;;;;;;;;0.75;0.75;;;;;15.56;73.93;99191.25;5095119;28;9532;-59
2023/09/19 02:58:35;;;;;;;;;2.00;1.00;;;;;15.56;73.94;99193.94;5095426;28;8823;-58
2023/09/19 03:01:03;;;;;;;;;1.00;1.00;;;;;15.54;73.66;99201.34;5094893;28;8819;-60
2023/09/19 03:03:31;;;;;;;;;1.75;0.75;;;;;15.54;73.46;99198.66;5094749;28;8946;-57
2023/09/19 03:06:03;;;;;;;;;1.00;1.00;;;;;15.54;73.25;99195.97;5095384;28;8842;-58
2023/09/19 03:08:36;;;;;;;;;1.00;1.00;;;;;15.53;73.35;99199.63;5094823;28;8844;-59
2023/09/19 03:11:05;;;;;;;;;1.00;1.00;;;;;15.54;73.77;99201.34;5094723;28;8911;-59
2023/09/19 03:13:33;;;;;;;;;1.00;1.00;;;;;15.52;73.70;99198.81;5095263;28;8837;-59
2023/09/19 03:16:00;;;;;;;;;2.00;2.00;;;;;15.52;73.56;99214.91;5094696;28;8964;-58
2023/09/19 03:18:28;;;;;;;;;0.25;0.25;;;;;15.52;73.49;99214.06;5095305;28;8861;-57
2023/09/19 03:20:56;;;;;;;;;1.80;1.80;;;;;15.50;73.78;99222.31;5095273;28;9589;-57
2023/09/19 03:23:23;;;;;;;;;1.00;0.40;;;;;15.48;73.23;99226.97;5095186;28;8838;-57
2023/09/19 03:25:52;;;;;;;;;1.00;1.00;;;;;15.48;73.60;99223.47;5094432;28;8898;-59
2023/09/19 03:28:20;;;;;;;;;1.00;1.00;;;;;15.47;73.41;99232.53;5094839;28;8814;-58
2023/09/19 03:30:48;;;;;;;;;0.00;0.00;;;;;15.46;73.39;99233.56;5094818;28;8860;-60
2023/09/19 03:33:16;;;;;;;;;2.00;2.00;;;;;15.44;73.02;99239.09;5093906;28;8810;-57
2023/09/19 03:35:44;;;;;;;;;1.00;1.00;;;;;15.43;72.95;99233.88;5094279;28;8810;-58
2023/09/19 03:38:11;;;;;;;;;1.00;1.00;;;;;15.40;73.71;99228.88;5094253;28;8817;-59
2023/09/19 03:40:39;;;;;;;;;0.75;0.75;;;;;15.40;73.35;99236.91;5096312;28;8841;-59
2023/09/19 03:43:06;;;;;;;;;3.25;1.00;;;;;15.40;72.78;99239.59;5101289;28;9521;-60
2023/09/19 03:45:34;;;;;;;;;0.25;0.25;;;;;15.39;73.18;99225.31;5100202;28;8834;-59
2023/09/19 03:48:02;;;;;;;;;3.00;2.00;;;;;15.37;73.30;99226.50;5100431;28;8849;-60
2023/09/19 03:50:29;;;;;;;;;1.00;1.00;;;;;15.34;72.92;99226.84;5100971;28;8845;-58
2023/09/19 03:52:57;;;;;;;;;1.00;1.00;;;;;15.33;73.08;99230.53;5101173;28;8818;-57
2023/09/19 03:55:24;;;;;;;;;3.25;2.00;;;;;15.31;73.13;99224.50;5100507;28;8806;-60
2023/09/19 03:57:52;;;;;;;;;0.00;0.00;;;;;15.27;72.55;99228.50;5100694;28;8822;-58
2023/09/19 04:00:21;;;;;;;;;0.00;0.00;;;;;15.24;72.67;99231.53;5101644;28;8818;-57
2023/09/19 04:02:49;;;;;;;;;0.75;0.75;;;;;15.22;73.08;99228.16;5101262;28;9619;-58
2023/09/19 04:05:17;;;;;;;;;1.00;1.00;;;;;15.22;73.13;99220.09;5100676;28;8845;-58
2023/09/19 04:07:44;;;;;;;;;1.00;0.00;;;;;15.20;73.22;99232.84;5100578;28;8821;-60
2023/09/19 04:10:14;;;;;;;;;0.25;0.25;;;;;15.18;72.70;99218.78;5100164;28;8832;-60
2023/09/19 04:12:42;;;;;;;;;1.00;0.75;;;;;15.14;72.73;99237.06;5100165;28;8867;-59
2023/09/19 04:15:13;;;;;;;;;1.00;0.75;;;;;15.14;72.53;99236.22;5100406;28;8955;-58
2023/09/19 04:17:40;;;;;;;;;0.25;0.25;;;;;15.13;72.81;99234.53;5099967;28;8931;-60
2023/09/19 04:20:08;;;;;;;;;1.00;1.00;;;;;15.12;73.32;99228.34;5100684;28;8826;-58
2023/09/19 04:22:36;;;;;;;;;1.00;1.00;;;;;15.10;72.63;99229.53;5100297;28;8829;-59
2023/09/19 04:25:04;;;;;;;;;1.00;0.25;;;;;15.08;72.55;99243.09;5100443;28;8810;-58
2023/09/19 04:27:32;;;;;;;;;0.50;0.50;;;;;15.08;72.63;99234.19;5100022;28;8826;-58
2023/09/19 04:30:00;;;;;;;;;0.00;0.00;;;;;15.07;72.58;99232.53;5100094;28;8830;-58
2023/09/19 04:32:27;;;;;;;;;1.00;0.50;;;;;15.04;72.44;99238.22;5100665;28;9463;-59
2023/09/19 04:34:59;;;;;;;;;0.75;0.25;;;;;15.02;72.43;99245.63;5100322;28;8810;-60
2023/09/19 04:37:27;;;;;;;;;4.00;1.00;;;;;15.00;72.76;99234.19;5100570;28;8819;-60
2023/09/19 04:39:55;;;;;;;;;0.00;0.00;;;;;14.99;72.77;99240.56;5100368;28;9852;-60
2023/09/19 04:42:25;;;;;;;;;1.00;1.00;;;;;14.97;72.60;99250.63;5099984;28;8822;-59
2023/09/19 04:44:53;;;;;;;;;1.00;1.00;;;;;14.97;72.20;99248.78;5100384;28;8833;-57
2023/09/19 04:47:21;;;;;;;;;0.00;0.00;;;;;14.95;72.30;99248.09;5100592;28;8854;-60
2023/09/19 04:49:49;;;;;;;;;1.00;0.00;;;;;14.95;72.65;99252.66;5099774;28;8810;-60
2023/09/19 04:52:17;;;;;;;;;1.00;1.00;;;;;14.94;72.88;99259.84;5098501;28;8810;-60
2023/09/19 04:54:45;;;;;;;;;1.00;1.00;;;;;14.94;72.74;99259.00;5097176;28;8926;-60
2023/09/19 04:57:12;;;;;;;;;2.00;1.00;;;;;14.92;72.79;99255.63;5096812;28;9516;-60
2023/09/19 04:59:41;;;;;;;;;1.00;1.00;;;;;14.90;72.47;99261.19;5097007;28;8823;-59
2023/09/19 05:02:09;;;;;;;;;3.25;3.00;;;;;14.90;72.35;99261.19;5097092;28;8815;-60
2023/09/19 05:04:37;;;;;;;;;0.00;0.00;;;;;14.90;72.55;99265.69;5096540;28;8921;-60
2023/09/19 05:07:04;;;;;;;;;1.00;0.50;;;;;14.89;72.82;99264.88;5095950;28;8858;-60
2023/09/19 05:09:34;;;;;;;;;1.00;1.00;;;;;14.87;72.20;99269.53;5096868;28;9538;-60
2023/09/19 05:12:02;;;;;;;;;1.00;0.25;;;;;14.86;72.13;99269.72;5096559;28;8853;-61
2023/09/19 05:14:30;;;;;;;;;0.00;0.00;;;;;14.84;72.51;99267.22;5096746;28;8857;-60
2023/09/19 05:16:58;;;;;;;;;1.00;1.00;;;;;14.85;72.20;99262.66;5095304;28;8830;-60
2023/09/19 05:19:26;;;;;;;;;0.50;0.00;;;;;14.84;72.66;99264.53;5095236;28;8869;-60
2023/09/19 05:21:55;;;;;;;;;0.00;0.00;;;;;14.84;72.50;99279.75;5095593;28;8904;-57
2023/09/19 05:24:23;;;;;;;;;0.75;0.75;;;;;14.84;72.06;99283.28;5096344;28;8949;-58
2023/09/19 05:26:51;;;;;;;;;1.00;1.00;;;;;14.85;72.08;99293.00;5096722;28;8837;-60
2023/09/19 05:29:19;;;;;;;;;1.75;0.25;;;;;14.87;71.81;99284.81;5096436;28;8818;-59
2023/09/19 05:31:47;;;;;;;;;0.00;0.00;;;;;14.87;71.98;99293.66;5096912;28;8956;-58
2023/09/19 05:34:14;;;;;;;;;0.50;0.50;;;;;14.89;71.97;99298.88;5095961;28;8826;-59
2023/09/19 05:36:43;;;;;;;;;0.00;0.00;;;;;14.91;71.81;99299.53;5095625;28;8826;-57
2023/09/19 05:39:10;;;;;;;;;0.00;0.00;;;;;14.93;71.83;99305.56;5095055;28;8830;-58
2023/09/19 05:41:39;;;;;;;;;0.00;0.00;;;;;14.94;71.63;99320.69;5094277;28;8834;-59
2023/09/19 05:44:08;;;;;;;;;1.00;0.00;;;;;14.94;71.50;99320.69;5095140;28;9487;-59
2023/09/19 05:46:35;;;;;;;;;0.75;0.75;;;;;14.95;71.71;99311.63;5095245;28;8915;-57
2023/09/19 05:49:03;;;;;;;;;0.00;0.00;;;;;14.97;71.74;99323.03;5095298;28;9820;-57
2023/09/19 05:51:31;;;;;;;;;0.75;0.75;;;;;14.99;71.38;99321.84;5094673;28;8845;-60
2023/09/19 05:53:58;;;;;;;;;0.75;0.75;;;;;15.02;71.45;99316.16;5093924;28;8838;-59
2023/09/19 05:56:27;;;;;;;;;2.50;1.00;;;;;15.05;71.12;99328.41;5093875;28;8833;-60
2023/09/19 05:58:54;;;;;;;;;2.50;1.00;;;;;15.08;71.50;99328.06;5092952;28;8869;-58
2023/09/19 06:01:22;;;;;;;;;1.00;1.00;;;;;15.08;71.19;99336.09;5092265;28;8826;-59
2023/09/19 06:03:50;;;;;;;;;0.25;0.00;;;;;15.11;71.41;99333.09;5091466;28;8919;-59
2023/09/19 06:06:18;;;;;;;;;1.00;1.00;;;;;15.12;71.68;99345.50;5090913;28;9153;-58
2023/09/19 06:08:46;;;;;;;;;0.00;0.00;;;;;15.14;71.15;99344.34;5091243;28;8818;-58
2023/09/19 06:11:14;;;;;;;;;0.75;0.75;;;;;15.16;71.00;99349.56;5092217;28;9603;-58
2023/09/19 06:13:42;;;;;;;;;0.00;0.00;;;;;15.20;71.06;99350.88;5092228;28;9230;-57
2023/09/19 06:16:09;;;;;;;;;3.00;1.00;;;;;15.22;70.87;99346.19;5092189;28;8842;-58
2023/09/19 06:18:37;;;;;;;;;1.00;1.00;;;;;15.26;71.19;99344.88;5091720;28;8873;-58
2023/09/19 06:21:07;;;;;;;;;0.50;0.50;;;;;15.29;71.00;99347.19;5091885;28;8923;-57
2023/09/19 06:23:35;;;;;;;;;0.00;0.00;;;;;15.33;70.70;99348.59;5091631;28;8859;-60
2023/09/19 06:26:03;;;;;;;;;0.50;0.50;;;;;15.36;70.95;99348.25;5092840;28;8826;-58
2023/09/19 06:28:31;;;;;;;;;1.00;0.75;;;;;15.40;70.81;99344.25;5093256;28;8834;-59
2023/09/19 06:30:58;;;;;;;;;1.50;0.25;;;;;15.44;70.63;99345.56;5092205;28;8826;-58
2023/09/19 06:33:26;;;;;;;;;3.00;3.00;;;;;15.48;70.27;99347.75;5092241;28;8834;-58
2023/09/19 06:35:59;;;;;;;;;1.50;1.50;;;;;15.52;70.61;99337.50;5091787;28;8842;-60
2023/09/19 06:38:26;;;;;;;;;0.75;0.75;;;;;15.57;70.65;99340.53;5090425;28;8848;-59
2023/09/19 06:40:54;;;;;;;;;1.00;1.00;;;;;15.61;70.45;99348.09;5091607;28;9476;-60
2023/09/19 06:43:23;;;;;;;;;1.00;1.00;;;;;15.65;70.12;99353.97;5091651;28;8857;-60
2023/09/19 06:45:51;;;;;;;;;1.00;1.00;;;;;15.68;69.96;99361.66;5092180;28;8874;-60
2023/09/19 06:48:20;;;;;;;;;0.75;0.75;;;;;15.71;69.24;99350.63;5093407;28;9507;-60
2023/09/19 06:50:48;;;;;;;;;1.00;1.00;;;;;15.74;69.90;99350.25;5092852;28;8834;-58
2023/09/19 06:53:17;;;;;;;;;0.40;0.40;;;;;15.77;69.85;99341.88;5093485;28;8913;-60
2023/09/19 06:55:45;;;;;;;;;0.80;0.00;;;;;15.80;69.90;99346.91;5093382;28;8958;-59
2023/09/19 06:58:12;;;;;;;;;0.00;0.00;;;;;15.85;69.66;99349.94;5092664;28;8838;-59
2023/09/19 07:00:40;;;;;;;;;0.00;0.00;;;;;15.88;69.58;99346.91;5092507;28;8848;-60
2023/09/19 07:03:11;;;;;;;;;1.00;1.00;;;;;15.91;69.57;99362.69;5093133;28;8833;-59
2023/09/19 07:05:39;;;;;;;;;3.00;3.00;;;;;15.93;69.70;99364.16;5093544;28;8880;-60
2023/09/19 07:08:09;;;;;;;;;4.00;3.00;;;;;15.99;69.44;99362.66;5093569;28;8806;-60
2023/09/19 07:10:37;;;;;;;;;1.80;1.00;;;;;16.05;69.28;99364.66;5093080;28;8835;-60
2023/09/19 07:13:06;;;;;;;;;0.00;0.00;;;;;16.10;69.25;99370.38;5093391;28;8857;-58
2023/09/19 07:15:36;;;;;;;;;1.00;1.00;;;;;16.12;68.93;99373.72;5092647;28;8817;-60
2023/09/19 07:18:04;;;;;;;;;0.60;0.00;;;;;16.15;68.81;99376.06;5094545;28;9541;-60
2023/09/19 07:20:34;;;;;;;;;1.00;1.00;;;;;16.18;69.18;99379.25;5093400;28;8857;-59
2023/09/19 07:23:02;;;;;;;;;1.80;1.00;;;;;16.22;68.75;99371.69;5092906;28;8818;-59
2023/09/19 07:25:30;;;;;;;;;1.00;1.00;;;;;16.25;69.22;99364.13;5092698;28;8968;-58
2023/09/19 07:27:59;;;;;;;;;2.80;0.80;;;;;16.28;68.80;99369.16;5092534;28;8972;-58
2023/09/19 07:30:28;;;;;;;;;0.60;0.00;;;;;16.30;68.50;99365.28;5091988;28;8842;-58
2023/09/19 07:32:55;;;;;;;;;0.60;0.60;;;;;16.34;68.65;99365.78;5092018;28;8968;-60
2023/09/19 07:35:23;;;;;;;;;3.00;1.00;;;;;16.38;68.45;99373.34;5092205;28;8838;-59
2023/09/19 07:37:52;;;;;;;;;0.00;0.00;;;;;16.42;68.39;99377.34;5091035;28;9492;-58
2023/09/19 07:40:20;;;;;;;;;1.00;1.00;;;;;16.45;68.57;99377.03;5092144;28;8810;-60
2023/09/19 07:42:48;;;;;;;;;1.00;1.00;;;;;16.48;68.33;99389.28;5092198;28;9515;-60
2023/09/19 07:45:17;;;;;;;;;1.00;1.00;;;;;16.52;68.37;99375.31;5091835;28;8903;-60
2023/09/19 07:47:45;;;;;;;;;1.00;0.00;;;;;16.56;68.72;99376.63;5089046;28;9762;-59
2023/09/19 07:50:13;;;;;;;;;1.00;1.00;;;;;16.60;67.71;99377.97;5089237;28;8853;-59
2023/09/19 07:52:40;;;;;;;;;2.60;2.60;;;;;16.65;68.48;99372.06;5090875;28;8964;-59
2023/09/19 07:55:11;;;;;;;;;1.80;1.00;;;;;16.67;68.23;99376.28;5090489;28;8948;-60
2023/09/19 07:57:41;;;;;;;;;0.20;0.20;;;;;16.70;68.34;99375.09;5089613;28;8834;-58
2023/09/19 08:00:09;;;;;;;;;1.80;1.80;;;;;16.73;67.83;99382.81;5089781;28;8976;-59
2023/09/19 08:02:38;;;;;;;;;0.60;0.60;;;;;16.77;67.83;99376.91;5089923;28;8837;-59
2023/09/19 08:05:09;;;;;;;;;1.00;0.20;;;;;16.83;68.26;99381.59;5088301;28;8857;-58
2023/09/19 08:07:37;;;;;;;;;3.00;1.40;;;;;16.87;67.92;99374.81;5089613;28;8833;-59
2023/09/19 08:10:07;;;;;;;;;3.00;1.80;;;;;16.93;67.74;99381.38;5088723;28;8836;-58
2023/09/19 08:12:35;;;;;;;;;1.80;1.80;;;;;16.98;67.49;99384.34;5089892;28;8838;-59
2023/09/19 08:15:03;;;;;;;;;3.40;3.00;;;;;17.05;67.50;99383.50;5090177;28;8834;-58
2023/09/19 08:17:31;;;;;;;;;3.00;2.60;;;;;17.11;67.17;99385.47;5090708;28;9512;-58
2023/09/19 08:20:00;;;;;;;;;0.40;0.00;;;;;17.18;67.32;99390.97;5091353;28;8838;-58
2023/09/19 08:22:28;;;;;;;;;1.00;1.00;;;;;17.20;67.15;99392.47;5090999;28;8833;-59
2023/09/19 08:24:56;;;;;;;;;3.20;3.20;;;;;17.24;67.37;99391.09;5091049;28;8834;-60
2023/09/19 08:27:26;;;;;;;;;4.20;3.60;;;;;17.30;67.22;99393.09;5092185;28;8834;-60
2023/09/19 08:29:54;;;;;;;;;1.00;1.00;;;;;17.34;67.09;99407.88;5091688;28;8838;-58
2023/09/19 08:32:24;;;;;;;;;1.60;1.20;;;;;17.40;66.62;99396.41;5095113;28;8853;-59
2023/09/19 08:34:52;;;;;;;;;1.00;1.00;;;;;17.47;66.78;99407.31;5095744;28;8834;-59
2023/09/19 08:37:21;;;;;;;;;1.80;1.00;;;;;17.52;66.45;99399.53;5094105;28;8814;-60
2023/09/19 08:39:49;;;;;;;;;0.00;0.00;;;;;17.60;66.44;99413.78;5095227;28;8909;-58
2023/09/19 08:42:17;;;;;;;;;1.00;0.80;;;;;17.63;66.58;99416.09;5094838;28;8826;-59
2023/09/19 08:44:46;;;;;;;;;1.00;1.00;;;;;17.65;65.84;99432.09;5094469;28;9523;-58
2023/09/19 08:47:14;;;;;;;;;2.20;2.20;;;;;17.63;66.26;99434.94;5094028;28;8877;-59
2023/09/19 08:49:44;;;;;;;;;1.00;1.00;;;;;17.61;66.44;99423.53;5093954;28;8846;-60
2023/09/19 08:52:12;;;;;;;;;2.20;1.00;;;;;17.65;66.42;99415.94;5093594;28;8845;-60
2023/09/19 08:54:40;;;;;;;;;2.60;2.60;;;;;17.67;65.95;99422.81;5094521;28;8838;-60
2023/09/19 08:57:10;;;;;;;;;3.00;3.00;;;;;17.70;65.93;99443.16;5092357;28;8853;-60
2023/09/19 08:59:39;;;;;;;;;3.00;2.60;;;;;17.70;66.20;99424.31;5093269;28;8854;-60
2023/09/19 09:02:07;;;;;;;;;3.60;3.60;;;;;17.72;65.61;99427.66;5094399;28;8961;-60
2023/09/19 09:04:35;;;;;;;;;4.40;3.00;;;;;17.78;65.63;99419.69;5095254;28;8814;-60
2023/09/19 09:07:03;;;;;;;;;3.80;3.20;;;;;17.85;65.66;99425.22;5095382;28;8842;-60
2023/09/19 09:09:31;;;;;;;;;3.40;3.40;;;;;17.89;65.59;99431.91;5095097;28;8958;-60
2023/09/19 09:11:59;;;;;;;;;3.20;3.20;;;;;17.94;65.25;99427.66;5094967;28;8849;-60
2023/09/19 09:14:27;;;;;;;;;3.00;3.00;;;;;18.02;65.07;99422.22;5094441;28;8848;-60
2023/09/19 09:16:58;;;;;;;;;1.00;1.00;;;;;18.13;65.11;99434.41;5094471;28;8860;-60
2023/09/19 09:19:26;;;;;;;;;3.00;3.00;;;;;18.21;64.92;99429.75;5093156;28;8818;-59
2023/09/19 09:21:54;;;;;;;;;0.00;0.00;;;;;18.27;64.33;99420.94;5094328;28;9538;-61
2023/09/19 09:24:24;;;;;;;;;3.60;3.60;;;;;18.33;64.25;99416.72;5093754;28;8861;-58
2023/09/19 09:26:53;;;;;;;;;2.20;2.20;;;;;18.42;64.08;99419.16;5090121;28;8999;-58
2023/09/19 09:29:20;;;;;;;;;3.00;3.00;;;;;18.44;63.95;99422.47;5093373;28;8833;-58
2023/09/19 09:31:48;;;;;;;;;3.00;1.40;;;;;18.48;64.02;99417.56;5093185;28;8828;-60
2023/09/19 09:34:16;;;;;;;;;3.00;1.40;;;;;18.54;63.61;99419.53;5094130;28;8825;-60
2023/09/19 09:36:44;;;;;;;;;3.60;3.60;;;;;18.59;63.76;99417.94;5090937;28;8880;-60
2023/09/19 09:39:24;;;;;;;;;3.00;3.00;;;;;18.70;63.56;99412.09;5090448;28;8877;-59
2023/09/19 09:41:53;;;;;;;;;3.00;3.00;;;;;18.82;63.26;99410.59;5090476;28;8838;-60
2023/09/19 09:44:20;;;;;;;;;1.00;1.00;;;;;18.92;62.96;99407.59;5091796;28;8834;-60
2023/09/19 09:46:58;;;;;;;;;3.20;3.20;;;;;19.08;63.02;99402.84;5091525;28;8891;-59
2023/09/19 09:49:33;;;;;;;;;3.40;3.00;;;;;19.21;62.32;99413.00;5093639;28;8850;-60
2023/09/19 09:52:05;;;;;;;;;3.80;3.00;;;;;19.24;61.93;99399.94;5093309;28;8826;-58
2023/09/19 09:54:38;;;;;;;;;1.00;1.00;;;;;19.29;62.15;99410.19;5091047;28;8915;-59
2023/09/19 10:00:15;;;;;;;;;3.00;2.60;;;;;19.73;61.10;99406.28;5125602;27;13334;-58
2023/09/19 10:02:46;;;;;;;;;4.60;4.60;;;;;20.17;59.79;99390.72;5107321;28;8839;-58
2023/09/19 10:05:30;;;;;;;;;2.40;2.40;;;;;20.70;58.84;99397.31;5107365;28;8833;-61
2023/09/19 10:08:01;;;;;;;;;2.80;2.80;;;;;20.99;58.35;99408.75;5107918;28;8966;-58
2023/09/19 10:10:29;;;;;;;;;4.00;4.00;;;;;20.94;58.53;99387.69;5106580;28;8828;-59
2023/09/19 10:12:58;;;;;;;;;2.20;1.60;;;;;20.88;58.54;99397.66;5107201;28;8828;-58
2023/09/19 10:15:31;;;;;;;;;1.00;1.00;;;;;21.12;57.84;99395.28;5108002;28;8986;-60
2023/09/19 10:17:59;;;;;;;;;10.00;4.40;;;;;21.28;57.37;99394.91;5108341;28;8871;-60
2023/09/19 10:20:38;;;;;;;;;3.60;3.60;;;;;21.27;57.48;99391.34;5107566;28;8847;-57
2023/09/19 10:23:09;;;;;;;;;3.60;2.00;;;;;21.39;56.93;99399.72;5107046;28;8932;-60
2023/09/19 10:25:37;;;;;;;;;2.00;1.00;;;;;21.22;57.17;99388.44;5107388;28;8840;-61
2023/09/19 10:28:06;;;;;;;;;2.80;2.00;;;;;21.16;57.24;99378.41;5108827;28;8827;-58
2023/09/19 10:30:36;;;;;;;;;2.60;1.40;;;;;21.38;56.81;99377.22;5109812;28;8836;-60
2023/09/19 10:33:03;;;;;;;;;2.00;1.40;;;;;21.47;56.53;99370.56;5109256;28;8832;-60
2023/09/19 10:35:31;;;;;;;;;1.40;0.00;;;;;21.30;56.74;99363.88;5109128;28;8832;-58
2023/09/19 10:38:00;;;;;;;;;2.80;1.40;;;;;21.41;56.55;99387.66;5109285;28;8850;-58
2023/09/19 10:40:30;;;;;;;;;1.60;1.40;;;;;21.53;56.21;99375.19;5109488;28;8816;-61
2023/09/19 10:42:58;;;;;;;;;1.80;1.60;;;;;21.74;55.87;99376.91;5108693;28;8843;-61
2023/09/19 10:45:26;;;;;;;;;2.00;1.00;;;;;21.91;55.62;99364.59;5108460;28;8839;-58
2023/09/19 10:47:55;;;;;;;;;1.60;1.00;;;;;21.86;55.30;99370.66;5109425;28;8835;-59
2023/09/19 10:50:23;;;;;;;;;3.20;1.40;;;;;21.55;56.09;99370.38;5108472;28;8836;-59
2023/09/19 10:52:57;;;;;;;;;1.00;1.00;;;;;21.21;57.25;99373.22;5108856;28;8869;-58
2023/09/19 10:55:27;;;;;;;;;2.00;1.00;;;;;21.00;57.67;99365.22;5108480;28;8924;-59
2023/09/19 10:58:11;;;;;;;;;1.00;1.00;;;;;20.82;57.93;99375.72;5108184;28;8830;-59
2023/09/19 11:00:41;;;;;;;;;1.00;1.00;;;;;20.60;57.87;99373.31;5107814;28;8856;-60
2023/09/19 11:03:09;;;;;;;;;3.60;1.80;;;;;20.43;58.41;99366.56;5107881;28;8822;-58
2023/09/19 11:05:40;;;;;;;;;1.00;1.00;;;;;20.35;58.67;99377.53;5107563;28;8841;-58
2023/09/19 11:08:08;;;;;;;;;2.40;2.40;;;;;20.40;58.26;99377.75;5106522;28;8834;-60
2023/09/19 11:10:36;;;;;;;;;1.20;1.20;;;;;20.59;57.80;99379.78;5098099;28;8842;-60
2023/09/19 11:13:04;;;;;;;;;1.80;1.00;;;;;20.81;57.08;99370.53;5094337;28;8838;-60
2023/09/19 11:15:32;;;;;;;;;1.80;1.80;;;;;20.93;56.80;99360.81;5093591;28;8838;-58
2023/09/19 11:18:01;;;;;;;;;2.00;2.00;;;;;21.07;55.96;99367.94;5093300;28;8822;-58
2023/09/19 11:20:41;;;;;;;;;2.00;1.00;;;;;21.46;55.17;99359.94;5091141;28;8833;-58
2023/09/19 11:23:09;;;;;;;;;1.80;1.40;;;;;21.82;53.85;99371.28;5091925;28;8854;-60
2023/09/19 11:25:41;;;;;;;;;2.00;1.20;;;;;22.29;52.72;99360.22;5091384;28;8834;-60
2023/09/19 11:28:14;;;;;;;;;0.00;0.00;;;;;22.89;51.62;99357.16;5090551;28;8837;-58
2023/09/19 11:30:43;;;;;;;;;1.20;1.00;;;;;23.45;50.53;99350.03;5090009;28;8861;-60
2023/09/19 11:33:11;;;;;;;;;2.00;1.80;;;;;24.07;49.73;99344.59;5091158;28;8931;-58
2023/09/19 11:35:39;;;;;;;;;4.00;2.00;;;;;24.66;48.05;99339.41;5091213;28;8845;-59
2023/09/19 11:38:15;;;;;;;;;1.00;1.00;;;;;25.29;47.23;99343.47;5090363;28;9131;-60
2023/09/19 11:40:43;;;;;;;;;1.00;1.00;;;;;25.77;47.07;99337.72;5091895;28;8923;-58
2023/09/19 11:43:11;;;;;;;;;0.00;0.00;;;;;26.43;46.15;99345.66;5092660;28;8830;-59
2023/09/19 11:45:39;;;;;;;;;0.40;0.40;;;;;26.77;45.06;99337.44;5092638;28;8940;-60
2023/09/19 11:48:08;;;;;;;;;1.20;0.40;;;;;27.17;44.57;99351.19;5092332;28;8829;-59
2023/09/19 11:50:36;;;;;;;;;1.40;1.40;;;;;27.36;44.64;99334.34;5092764;28;9524;-59